sensor_id;sensor_type;location;lat;lon;timestamp;P1;durP1;ratioP1;P2;durP2;ratioP2
35907;SDS011;22003;50.320;8.054;2023-04-25T04:00:22;18.27;;;6.47;;
35907;SDS011;22003;50.320;8.054;2023-04-25T04:02:47;18.30;;;6.95;;
35907;SDS011;22003;50.320;8.054;2023-04-25T04:05:13;27.67;;;7.15;;
35907;SDS011;22003;50.320;8.054;2023-04-25T04:07:38;17.40;;;6.35;;
35907;SDS011;22003;50.320;8.054;2023-04-25T04:10:08;13.50;;;7.82;;
35907;SDS011;22003;50.320;8.054;2023-04-25T04:12:34;15.23;;;7.13;;
35907;SDS011;22003;50.320;8.054;2023-04-25T04:15:00;20.65;;;7.22;;
35907;SDS011;22003;50.320;8.054;2023-04-25T04:19:53;19.55;;;6.50;;
35907;SDS011;22003;50.320;8.054;2023-04-25T04:22:18;16.17;;;6.82;;
35907;SDS011;22003;50.320;8.054;2023-04-25T04:24:43;17.80;;;7.57;;
35907;SDS011;22003;50.320;8.054;2023-04-25T04:27:11;18.13;;;7.28;;
35907;SDS011;22003;50.320;8.054;2023-04-25T04:29:37;20.00;;;8.85;;
35907;SDS011;22003;50.320;8.054;2023-04-25T04:32:02;22.13;;;9.05;;
35907;SDS011;22003;50.320;8.054;2023-04-25T04:34:28;21.48;;;7.53;;
35907;SDS011;22003;50.320;8.054;2023-04-25T04:36:53;22.83;;;7.53;;
35907;SDS011;22003;50.320;8.054;2023-04-25T04:39:19;21.88;;;8.15;;
35907;SDS011;22003;50.320;8.054;2023-04-25T04:41:45;21.75;;;8.02;;
35907;SDS011;22003;50.320;8.054;2023-04-25T04:44:10;18.05;;;7.65;;
35907;SDS011;22003;50.320;8.054;2023-04-25T04:46:35;25.90;;;10.50;;
35907;SDS011;22003;50.320;8.054;2023-04-25T04:49:06;22.98;;;8.55;;
35907;SDS011;22003;50.320;8.054;2023-04-25T04:51:35;29.85;;;9.82;;
35907;SDS011;22003;50.320;8.054;2023-04-25T04:54:01;25.67;;;7.55;;
35907;SDS011;22003;50.320;8.054;2023-04-25T04:56:30;18.48;;;6.93;;
35907;SDS011;22003;50.320;8.054;2023-04-25T04:58:56;19.35;;;7.68;;
35907;SDS011;22003;50.320;8.054;2023-04-25T05:01:22;23.88;;;7.63;;
35907;SDS011;22003;50.320;8.054;2023-04-25T05:03:47;16.63;;;7.63;;
35907;SDS011;22003;50.320;8.054;2023-04-25T05:06:13;13.02;;;6.30;;
35907;SDS011;22003;50.320;8.054;2023-04-25T05:08:38;14.52;;;6.90;;
35907;SDS011;22003;50.320;8.054;2023-04-25T05:11:03;15.35;;;6.05;;
35907;SDS011;22003;50.320;8.054;2023-04-25T05:13:28;17.42;;;6.65;;
35907;SDS011;22003;50.320;8.054;2023-04-25T05:15:54;14.25;;;6.35;;
35907;SDS011;22003;50.320;8.054;2023-04-25T05:18:19;19.70;;;8.00;;
35907;SDS011;22003;50.320;8.054;2023-04-25T05:20:45;21.63;;;7.13;;
35907;SDS011;22003;50.320;8.054;2023-04-25T05:23:10;15.35;;;6.35;;
35907;SDS011;22003;50.320;8.054;2023-04-25T05:25:35;19.77;;;7.07;;
35907;SDS011;22003;50.320;8.054;2023-04-25T05:28:00;11.32;;;5.80;;
35907;SDS011;22003;50.320;8.054;2023-04-25T05:30:26;20.42;;;7.55;;
35907;SDS011;22003;50.320;8.054;2023-04-25T05:32:51;12.45;;;5.32;;
35907;SDS011;22003;50.320;8.054;2023-04-25T05:35:16;19.08;;;5.88;;
35907;SDS011;22003;50.320;8.054;2023-04-25T05:37:42;11.25;;;5.35;;
35907;SDS011;22003;50.320;8.054;2023-04-25T05:40:07;10.73;;;5.43;;
35907;SDS011;22003;50.320;8.054;2023-04-25T05:42:33;15.05;;;5.40;;
35907;SDS011;22003;50.320;8.054;2023-04-25T05:44:58;10.93;;;5.47;;
35907;SDS011;22003;50.320;8.054;2023-04-25T05:47:24;13.27;;;4.97;;
35907;SDS011;22003;50.320;8.054;2023-04-25T05:49:49;12.35;;;4.82;;
35907;SDS011;22003;50.320;8.054;2023-04-25T05:52:15;12.18;;;4.35;;
35907;SDS011;22003;50.320;8.054;2023-04-25T05:54:40;12.32;;;4.70;;
35907;SDS011;22003;50.320;8.054;2023-04-25T05:57:06;14.20;;;5.75;;
35907;SDS011;22003;50.320;8.054;2023-04-25T05:59:31;13.52;;;5.07;;
35907;SDS011;22003;50.320;8.054;2023-04-25T06:01:56;13.05;;;4.85;;
35907;SDS011;22003;50.320;8.054;2023-04-25T06:04:21;10.05;;;4.60;;
35907;SDS011;22003;50.320;8.054;2023-04-25T06:06:47;17.25;;;4.72;;
35907;SDS011;22003;50.320;8.054;2023-04-25T06:09:12;21.45;;;5.50;;
35907;SDS011;22003;50.320;8.054;2023-04-25T06:11:37;16.15;;;5.57;;
35907;SDS011;22003;50.320;8.054;2023-04-25T06:14:02;15.80;;;4.40;;
35907;SDS011;22003;50.320;8.054;2023-04-25T06:16:28;14.98;;;5.43;;
35907;SDS011;22003;50.320;8.054;2023-04-25T06:18:53;9.27;;;4.40;;
35907;SDS011;22003;50.320;8.054;2023-04-25T06:21:18;13.15;;;5.57;;
35907;SDS011;22003;50.320;8.054;2023-04-25T06:23:43;12.52;;;4.75;;
35907;SDS011;22003;50.320;8.054;2023-04-25T06:26:09;9.27;;;3.60;;
35907;SDS011;22003;50.320;8.054;2023-04-25T06:28:34;9.88;;;4.15;;
35907;SDS011;22003;50.320;8.054;2023-04-25T06:30:59;8.05;;;3.15;;
35907;SDS011;22003;50.320;8.054;2023-04-25T06:33:25;7.10;;;3.50;;
35907;SDS011;22003;50.320;8.054;2023-04-25T06:35:50;7.82;;;3.65;;
35907;SDS011;22003;50.320;8.054;2023-04-25T06:38:15;9.57;;;3.78;;
35907;SDS011;22003;50.320;8.054;2023-04-25T06:40:40;6.82;;;3.40;;
35907;SDS011;22003;50.320;8.054;2023-04-25T06:43:06;8.52;;;3.17;;
35907;SDS011;22003;50.320;8.054;2023-04-25T06:45:31;7.53;;;3.30;;
35907;SDS011;22003;50.320;8.054;2023-04-25T06:47:56;5.80;;;2.75;;
35907;SDS011;22003;50.320;8.054;2023-04-25T06:50:21;8.60;;;3.05;;
35907;SDS011;22003;50.320;8.054;2023-04-25T06:52:47;7.05;;;2.40;;
35907;SDS011;22003;50.320;8.054;2023-04-25T06:55:12;7.63;;;2.83;;
35907;SDS011;22003;50.320;8.054;2023-04-25T06:57:37;6.95;;;3.30;;
35907;SDS011;22003;50.320;8.054;2023-04-25T07:00:03;8.05;;;2.90;;
35907;SDS011;22003;50.320;8.054;2023-04-25T07:04:55;8.25;;;3.35;;
35907;SDS011;22003;50.320;8.054;2023-04-25T07:07:24;6.75;;;3.13;;
35907;SDS011;22003;50.320;8.054;2023-04-25T07:09:49;9.50;;;4.30;;
35907;SDS011;22003;50.320;8.054;2023-04-25T07:12:15;7.20;;;3.17;;
35907;SDS011;22003;50.320;8.054;2023-04-25T07:14:40;11.25;;;4.10;;
35907;SDS011;22003;50.320;8.054;2023-04-25T07:17:05;10.80;;;5.03;;
35907;SDS011;22003;50.320;8.054;2023-04-25T07:19:31;10.13;;;4.38;;
35907;SDS011;22003;50.320;8.054;2023-04-25T07:21:58;10.38;;;4.95;;
35907;SDS011;22003;50.320;8.054;2023-04-25T07:24:23;12.07;;;4.72;;
35907;SDS011;22003;50.320;8.054;2023-04-25T07:26:48;12.43;;;5.38;;
35907;SDS011;22003;50.320;8.054;2023-04-25T07:29:13;16.13;;;5.93;;
35907;SDS011;22003;50.320;8.054;2023-04-25T07:31:39;11.57;;;5.18;;
35907;SDS011;22003;50.320;8.054;2023-04-25T07:34:04;10.98;;;4.97;;
35907;SDS011;22003;50.320;8.054;2023-04-25T07:36:30;9.43;;;5.13;;
35907;SDS011;22003;50.320;8.054;2023-04-25T07:38:56;9.82;;;4.47;;
35907;SDS011;22003;50.320;8.054;2023-04-25T07:41:21;9.95;;;5.32;;
35907;SDS011;22003;50.320;8.054;2023-04-25T07:43:46;14.20;;;5.78;;
35907;SDS011;22003;50.320;8.054;2023-04-25T07:46:11;13.98;;;6.10;;
35907;SDS011;22003;50.320;8.054;2023-04-25T07:48:37;11.23;;;6.22;;
35907;SDS011;22003;50.320;8.054;2023-04-25T07:51:02;12.70;;;6.30;;
35907;SDS011;22003;50.320;8.054;2023-04-25T07:53:29;12.80;;;6.25;;
35907;SDS011;22003;50.320;8.054;2023-04-25T07:55:54;9.25;;;5.60;;
35907;SDS011;22003;50.320;8.054;2023-04-25T07:58:20;14.00;;;5.40;;
35907;SDS011;22003;50.320;8.054;2023-04-25T08:00:46;16.02;;;5.68;;
35907;SDS011;22003;50.320;8.054;2023-04-25T08:03:13;10.95;;;6.43;;
35907;SDS011;22003;50.320;8.054;2023-04-25T08:05:38;17.42;;;6.95;;
35907;SDS011;22003;50.320;8.054;2023-04-25T08:08:03;11.45;;;6.43;;
35907;SDS011;22003;50.320;8.054;2023-04-25T08:12:56;13.77;;;6.88;;
35907;SDS011;22003;50.320;8.054;2023-04-25T08:15:21;11.65;;;6.47;;
35907;SDS011;22003;50.320;8.054;2023-04-25T08:17:46;13.57;;;5.90;;
35907;SDS011;22003;50.320;8.054;2023-04-25T08:20:12;15.25;;;6.28;;
35907;SDS011;22003;50.320;8.054;2023-04-25T08:22:37;13.27;;;6.22;;
35907;SDS011;22003;50.320;8.054;2023-04-25T08:25:02;11.85;;;5.80;;
35907;SDS011;22003;50.320;8.054;2023-04-25T08:27:28;17.30;;;7.20;;
35907;SDS011;22003;50.320;8.054;2023-04-25T08:29:53;14.63;;;6.03;;
35907;SDS011;22003;50.320;8.054;2023-04-25T08:32:19;14.68;;;5.68;;
35907;SDS011;22003;50.320;8.054;2023-04-25T08:34:44;13.10;;;6.35;;
35907;SDS011;22003;50.320;8.054;2023-04-25T08:37:10;11.52;;;6.53;;
35907;SDS011;22003;50.320;8.054;2023-04-25T08:39:36;10.65;;;6.05;;
35907;SDS011;22003;50.320;8.054;2023-04-25T08:42:05;11.57;;;5.80;;
35907;SDS011;22003;50.320;8.054;2023-04-25T08:44:34;11.65;;;5.30;;
35907;SDS011;22003;50.320;8.054;2023-04-25T08:47:02;10.98;;;4.95;;
35907;SDS011;22003;50.320;8.054;2023-04-25T08:49:29;13.82;;;6.43;;
35907;SDS011;22003;50.320;8.054;2023-04-25T08:51:57;11.52;;;6.18;;
35907;SDS011;22003;50.320;8.054;2023-04-25T08:54:25;9.75;;;6.03;;
35907;SDS011;22003;50.320;8.054;2023-04-25T08:59:19;10.90;;;5.65;;
35907;SDS011;22003;50.320;8.054;2023-04-25T09:01:44;10.82;;;5.43;;
35907;SDS011;22003;50.320;8.054;2023-04-25T09:04:11;15.00;;;5.18;;
35907;SDS011;22003;50.320;8.054;2023-04-25T09:06:37;10.27;;;5.68;;
35907;SDS011;22003;50.320;8.054;2023-04-25T09:09:03;12.70;;;6.53;;
35907;SDS011;22003;50.320;8.054;2023-04-25T09:11:30;12.32;;;6.55;;
35907;SDS011;22003;50.320;8.054;2023-04-25T09:16:58;9.63;;;4.65;;
35907;SDS011;22003;50.320;8.054;2023-04-25T09:21:54;9.05;;;3.85;;
35907;SDS011;22003;50.320;8.054;2023-04-25T09:26:58;7.25;;;4.78;;
35907;SDS011;22003;50.320;8.054;2023-04-25T09:29:30;15.70;;;4.88;;
35907;SDS011;22003;50.320;8.054;2023-04-25T09:34:49;11.65;;;4.55;;
35907;SDS011;22003;50.320;8.054;2023-04-25T09:37:28;10.55;;;5.25;;
35907;SDS011;22003;50.320;8.054;2023-04-25T09:39:58;8.50;;;4.22;;
35907;SDS011;22003;50.320;8.054;2023-04-25T09:42:28;7.53;;;4.20;;
35907;SDS011;22003;50.320;8.054;2023-04-25T09:44:56;8.55;;;4.68;;
35907;SDS011;22003;50.320;8.054;2023-04-25T09:47:23;12.45;;;4.50;;
35907;SDS011;22003;50.320;8.054;2023-04-25T09:49:49;9.38;;;4.82;;
35907;SDS011;22003;50.320;8.054;2023-04-25T09:52:16;7.13;;;3.70;;
35907;SDS011;22003;50.320;8.054;2023-04-25T09:54:46;7.80;;;4.50;;
35907;SDS011;22003;50.320;8.054;2023-04-25T09:57:30;13.05;;;3.85;;
35907;SDS011;22003;50.320;8.054;2023-04-25T09:59:56;6.93;;;4.18;;
35907;SDS011;22003;50.320;8.054;2023-04-25T10:02:23;9.00;;;4.10;;
35907;SDS011;22003;50.320;8.054;2023-04-25T10:04:50;4.30;;;3.03;;
35907;SDS011;22003;50.320;8.054;2023-04-25T10:07:19;7.35;;;3.30;;
35907;SDS011;22003;50.320;8.054;2023-04-25T10:09:51;9.02;;;3.10;;
35907;SDS011;22003;50.320;8.054;2023-04-25T10:12:28;5.70;;;2.53;;
35907;SDS011;22003;50.320;8.054;2023-04-25T10:14:56;12.40;;;3.97;;
35907;SDS011;22003;50.320;8.054;2023-04-25T10:17:22;6.75;;;3.47;;
35907;SDS011;22003;50.320;8.054;2023-04-25T10:19:48;8.35;;;3.40;;
35907;SDS011;22003;50.320;8.054;2023-04-25T10:24:43;16.70;;;3.33;;
35907;SDS011;22003;50.320;8.054;2023-04-25T10:29:36;6.63;;;3.08;;
35907;SDS011;22003;50.320;8.054;2023-04-25T10:32:02;7.22;;;3.65;;
35907;SDS011;22003;50.320;8.054;2023-04-25T10:34:43;13.38;;;3.65;;
35907;SDS011;22003;50.320;8.054;2023-04-25T10:37:12;6.75;;;3.28;;
35907;SDS011;22003;50.320;8.054;2023-04-25T10:39:40;5.55;;;2.97;;
35907;SDS011;22003;50.320;8.054;2023-04-25T10:42:07;6.18;;;3.53;;
35907;SDS011;22003;50.320;8.054;2023-04-25T10:44:33;9.35;;;4.13;;
35907;SDS011;22003;50.320;8.054;2023-04-25T10:47:00;7.38;;;3.30;;
35907;SDS011;22003;50.320;8.054;2023-04-25T10:49:30;10.13;;;3.50;;
35907;SDS011;22003;50.320;8.054;2023-04-25T10:52:11;8.60;;;3.08;;
35907;SDS011;22003;50.320;8.054;2023-04-25T10:54:48;4.63;;;3.38;;
35907;SDS011;22003;50.320;8.054;2023-04-25T11:00:06;8.60;;;3.13;;
35907;SDS011;22003;50.320;8.054;2023-04-25T11:02:36;7.15;;;2.85;;
35907;SDS011;22003;50.320;8.054;2023-04-25T11:05:03;7.78;;;3.05;;
35907;SDS011;22003;50.320;8.054;2023-04-25T11:07:34;10.45;;;3.10;;
35907;SDS011;22003;50.320;8.054;2023-04-25T11:10:09;7.93;;;3.13;;
35907;SDS011;22003;50.320;8.054;2023-04-25T11:12:34;8.50;;;2.65;;
35907;SDS011;22003;50.320;8.054;2023-04-25T11:15:00;4.03;;;2.22;;
35907;SDS011;22003;50.320;8.054;2023-04-25T11:17:27;3.78;;;2.30;;
35907;SDS011;22003;50.320;8.054;2023-04-25T11:19:53;7.18;;;2.30;;
35907;SDS011;22003;50.320;8.054;2023-04-25T11:22:18;7.38;;;3.20;;
35907;SDS011;22003;50.320;8.054;2023-04-25T11:24:46;11.85;;;2.90;;
35907;SDS011;22003;50.320;8.054;2023-04-25T11:27:11;7.85;;;2.92;;
35907;SDS011;22003;50.320;8.054;2023-04-25T11:29:37;8.05;;;3.25;;
35907;SDS011;22003;50.320;8.054;2023-04-25T11:32:02;5.57;;;2.97;;
35907;SDS011;22003;50.320;8.054;2023-04-25T11:34:28;9.90;;;3.25;;
35907;SDS011;22003;50.320;8.054;2023-04-25T11:36:58;8.95;;;3.47;;
35907;SDS011;22003;50.320;8.054;2023-04-25T11:39:24;10.32;;;3.45;;
35907;SDS011;22003;50.320;8.054;2023-04-25T11:41:51;11.35;;;4.30;;
35907;SDS011;22003;50.320;8.054;2023-04-25T11:44:17;8.02;;;3.70;;
35907;SDS011;22003;50.320;8.054;2023-04-25T11:46:43;6.53;;;3.53;;
35907;SDS011;22003;50.320;8.054;2023-04-25T11:49:09;11.65;;;3.67;;
35907;SDS011;22003;50.320;8.054;2023-04-25T11:51:44;8.80;;;3.17;;
35907;SDS011;22003;50.320;8.054;2023-04-25T11:54:12;10.13;;;4.60;;
35907;SDS011;22003;50.320;8.054;2023-04-25T11:56:40;8.27;;;3.67;;
35907;SDS011;22003;50.320;8.054;2023-04-25T11:59:06;10.18;;;3.20;;
35907;SDS011;22003;50.320;8.054;2023-04-25T12:01:34;9.93;;;3.80;;
35907;SDS011;22003;50.320;8.054;2023-04-25T12:04:11;8.70;;;4.38;;
35907;SDS011;22003;50.320;8.054;2023-04-25T12:06:45;9.10;;;4.07;;
35907;SDS011;22003;50.320;8.054;2023-04-25T12:09:14;6.13;;;3.10;;
35907;SDS011;22003;50.320;8.054;2023-04-25T12:14:11;8.07;;;4.00;;
35907;SDS011;22003;50.320;8.054;2023-04-25T12:16:41;8.55;;;3.05;;
35907;SDS011;22003;50.320;8.054;2023-04-25T12:19:07;9.40;;;4.30;;
35907;SDS011;22003;50.320;8.054;2023-04-25T12:21:32;7.70;;;3.75;;
35907;SDS011;22003;50.320;8.054;2023-04-25T12:24:08;7.07;;;3.15;;
35907;SDS011;22003;50.320;8.054;2023-04-25T12:26:48;7.35;;;3.05;;
35907;SDS011;22003;50.320;8.054;2023-04-25T12:29:20;11.55;;;3.60;;
35907;SDS011;22003;50.320;8.054;2023-04-25T12:31:48;7.22;;;3.33;;
35907;SDS011;22003;50.320;8.054;2023-04-25T12:34:14;11.10;;;3.35;;
35907;SDS011;22003;50.320;8.054;2023-04-25T12:36:40;7.20;;;2.33;;
35907;SDS011;22003;50.320;8.054;2023-04-25T12:39:05;6.38;;;2.88;;
35907;SDS011;22003;50.320;8.054;2023-04-25T12:41:31;6.88;;;3.28;;
35907;SDS011;22003;50.320;8.054;2023-04-25T12:43:57;8.27;;;3.60;;
35907;SDS011;22003;50.320;8.054;2023-04-25T12:46:22;10.77;;;3.53;;
35907;SDS011;22003;50.320;8.054;2023-04-25T12:51:15;11.63;;;3.03;;
35907;SDS011;22003;50.320;8.054;2023-04-25T12:53:40;8.73;;;2.65;;
35907;SDS011;22003;50.320;8.054;2023-04-25T12:56:06;7.85;;;3.50;;
35907;SDS011;22003;50.320;8.054;2023-04-25T12:58:32;9.45;;;2.92;;
35907;SDS011;22003;50.320;8.054;2023-04-25T13:00:58;5.10;;;2.30;;
35907;SDS011;22003;50.320;8.054;2023-04-25T13:03:23;12.20;;;2.80;;
35907;SDS011;22003;50.320;8.054;2023-04-25T13:05:49;6.47;;;2.20;;
35907;SDS011;22003;50.320;8.054;2023-04-25T13:08:15;9.88;;;2.28;;
35907;SDS011;22003;50.320;8.054;2023-04-25T13:10:43;5.82;;;2.30;;
35907;SDS011;22003;50.320;8.054;2023-04-25T13:13:08;4.43;;;2.10;;
35907;SDS011;22003;50.320;8.054;2023-04-25T13:15:34;6.20;;;2.28;;
35907;SDS011;22003;50.320;8.054;2023-04-25T13:18:00;4.32;;;2.08;;
35907;SDS011;22003;50.320;8.054;2023-04-25T13:20:25;3.65;;;1.90;;
35907;SDS011;22003;50.320;8.054;2023-04-25T13:22:50;9.95;;;2.45;;
35907;SDS011;22003;50.320;8.054;2023-04-25T13:25:15;6.72;;;2.65;;
35907;SDS011;22003;50.320;8.054;2023-04-25T13:27:41;7.57;;;2.22;;
35907;SDS011;22003;50.320;8.054;2023-04-25T13:32:34;4.35;;;1.80;;
35907;SDS011;22003;50.320;8.054;2023-04-25T13:35:03;8.35;;;2.80;;
35907;SDS011;22003;50.320;8.054;2023-04-25T13:37:30;6.93;;;2.40;;
35907;SDS011;22003;50.320;8.054;2023-04-25T13:39:57;10.48;;;5.00;;
35907;SDS011;22003;50.320;8.054;2023-04-25T13:42:23;6.80;;;2.17;;
35907;SDS011;22003;50.320;8.054;2023-04-25T13:44:48;7.97;;;2.13;;
35907;SDS011;22003;50.320;8.054;2023-04-25T13:47:14;9.18;;;2.55;;
35907;SDS011;22003;50.320;8.054;2023-04-25T13:49:39;8.10;;;2.25;;
35907;SDS011;22003;50.320;8.054;2023-04-25T13:52:05;6.75;;;2.35;;
35907;SDS011;22003;50.320;8.054;2023-04-25T13:54:30;8.02;;;1.83;;
35907;SDS011;22003;50.320;8.054;2023-04-25T13:56:55;6.75;;;2.53;;
35907;SDS011;22003;50.320;8.054;2023-04-25T13:59:23;9.18;;;2.72;;
35907;SDS011;22003;50.320;8.054;2023-04-25T14:01:48;8.80;;;3.25;;
35907;SDS011;22003;50.320;8.054;2023-04-25T14:04:14;9.27;;;2.90;;
35907;SDS011;22003;50.320;8.054;2023-04-25T14:06:40;5.80;;;2.38;;
35907;SDS011;22003;50.320;8.054;2023-04-25T14:09:06;5.82;;;2.53;;
35907;SDS011;22003;50.320;8.054;2023-04-25T14:11:32;13.93;;;2.88;;
35907;SDS011;22003;50.320;8.054;2023-04-25T14:13:57;6.18;;;2.70;;
35907;SDS011;22003;50.320;8.054;2023-04-25T14:16:22;6.93;;;2.17;;
35907;SDS011;22003;50.320;8.054;2023-04-25T14:18:48;6.43;;;2.72;;
35907;SDS011;22003;50.320;8.054;2023-04-25T14:21:13;8.82;;;2.50;;
35907;SDS011;22003;50.320;8.054;2023-04-25T14:23:38;7.97;;;2.75;;
35907;SDS011;22003;50.320;8.054;2023-04-25T14:26:03;6.60;;;2.22;;
35907;SDS011;22003;50.320;8.054;2023-04-25T14:28:29;4.25;;;2.00;;
35907;SDS011;22003;50.320;8.054;2023-04-25T14:30:54;10.80;;;2.58;;
35907;SDS011;22003;50.320;8.054;2023-04-25T14:33:19;5.78;;;1.98;;
35907;SDS011;22003;50.320;8.054;2023-04-25T14:35:44;11.52;;;2.75;;
35907;SDS011;22003;50.320;8.054;2023-04-25T14:38:10;9.43;;;2.47;;
35907;SDS011;22003;50.320;8.054;2023-04-25T14:40:36;5.60;;;2.10;;
35907;SDS011;22003;50.320;8.054;2023-04-25T14:43:02;8.32;;;2.58;;
35907;SDS011;22003;50.320;8.054;2023-04-25T14:45:27;4.57;;;2.00;;
35907;SDS011;22003;50.320;8.054;2023-04-25T14:47:53;7.05;;;2.30;;
35907;SDS011;22003;50.320;8.054;2023-04-25T14:50:18;3.47;;;1.70;;
35907;SDS011;22003;50.320;8.054;2023-04-25T14:52:43;10.05;;;2.13;;
35907;SDS011;22003;50.320;8.054;2023-04-25T14:55:09;13.45;;;2.50;;
35907;SDS011;22003;50.320;8.054;2023-04-25T14:57:35;4.03;;;2.08;;
35907;SDS011;22003;50.320;8.054;2023-04-25T15:00:00;4.75;;;1.52;;
35907;SDS011;22003;50.320;8.054;2023-04-25T15:02:27;6.55;;;1.83;;
35907;SDS011;22003;50.320;8.054;2023-04-25T15:04:53;11.80;;;2.40;;
35907;SDS011;22003;50.320;8.054;2023-04-25T15:07:19;7.85;;;2.65;;
35907;SDS011;22003;50.320;8.054;2023-04-25T15:09:44;7.18;;;1.83;;
35907;SDS011;22003;50.320;8.054;2023-04-25T15:12:10;7.28;;;2.08;;
35907;SDS011;22003;50.320;8.054;2023-04-25T15:14:35;10.80;;;2.13;;
35907;SDS011;22003;50.320;8.054;2023-04-25T15:17:00;4.65;;;2.03;;
35907;SDS011;22003;50.320;8.054;2023-04-25T15:19:26;9.32;;;2.15;;
35907;SDS011;22003;50.320;8.054;2023-04-25T15:21:51;9.65;;;2.10;;
35907;SDS011;22003;50.320;8.054;2023-04-25T15:24:17;5.15;;;1.67;;
35907;SDS011;22003;50.320;8.054;2023-04-25T15:26:43;6.32;;;1.88;;
35907;SDS011;22003;50.320;8.054;2023-04-25T15:29:08;7.95;;;2.30;;
35907;SDS011;22003;50.320;8.054;2023-04-25T15:31:34;3.75;;;1.90;;
35907;SDS011;22003;50.320;8.054;2023-04-25T15:33:59;8.65;;;2.65;;
35907;SDS011;22003;50.320;8.054;2023-04-25T15:36:25;6.90;;;1.77;;
35907;SDS011;22003;50.320;8.054;2023-04-25T15:38:50;3.35;;;1.60;;
35907;SDS011;22003;50.320;8.054;2023-04-25T15:41:16;3.72;;;1.83;;
35907;SDS011;22003;50.320;8.054;2023-04-25T15:43:42;5.88;;;1.55;;
35907;SDS011;22003;50.320;8.054;2023-04-25T15:46:07;5.90;;;1.60;;
35907;SDS011;22003;50.320;8.054;2023-04-25T15:48:32;11.00;;;2.25;;
35907;SDS011;22003;50.320;8.054;2023-04-25T15:50:58;4.90;;;1.52;;
35907;SDS011;22003;50.320;8.054;2023-04-25T15:53:23;7.97;;;2.00;;
35907;SDS011;22003;50.320;8.054;2023-04-25T15:55:48;13.27;;;2.42;;
35907;SDS011;22003;50.320;8.054;2023-04-25T15:58:14;3.15;;;1.45;;
35907;SDS011;22003;50.320;8.054;2023-04-25T16:00:39;6.10;;;1.88;;
35907;SDS011;22003;50.320;8.054;2023-04-25T16:03:05;7.68;;;2.47;;
35907;SDS011;22003;50.320;8.054;2023-04-25T16:05:31;5.18;;;1.95;;
35907;SDS011;22003;50.320;8.054;2023-04-25T16:07:56;10.65;;;1.83;;
35907;SDS011;22003;50.320;8.054;2023-04-25T16:10:22;6.00;;;2.30;;
35907;SDS011;22003;50.320;8.054;2023-04-25T16:12:48;9.30;;;1.58;;
35907;SDS011;22003;50.320;8.054;2023-04-25T16:15:14;4.82;;;1.88;;
35907;SDS011;22003;50.320;8.054;2023-04-25T16:17:39;6.60;;;1.42;;
35907;SDS011;22003;50.320;8.054;2023-04-25T16:20:05;4.72;;;1.58;;
35907;SDS011;22003;50.320;8.054;2023-04-25T16:22:34;4.88;;;1.55;;
35907;SDS011;22003;50.320;8.054;2023-04-25T16:25:01;4.43;;;1.70;;
35907;SDS011;22003;50.320;8.054;2023-04-25T16:27:27;8.77;;;1.80;;
35907;SDS011;22003;50.320;8.054;2023-04-25T16:29:52;4.32;;;2.35;;
35907;SDS011;22003;50.320;8.054;2023-04-25T16:32:18;7.13;;;1.65;;
35907;SDS011;22003;50.320;8.054;2023-04-25T16:34:43;7.25;;;1.90;;
35907;SDS011;22003;50.320;8.054;2023-04-25T16:37:08;3.80;;;1.58;;
35907;SDS011;22003;50.320;8.054;2023-04-25T16:39:34;2.95;;;1.90;;
35907;SDS011;22003;50.320;8.054;2023-04-25T16:41:59;4.70;;;2.35;;
35907;SDS011;22003;50.320;8.054;2023-04-25T16:44:25;5.53;;;2.03;;
35907;SDS011;22003;50.320;8.054;2023-04-25T16:46:50;7.07;;;1.80;;
35907;SDS011;22003;50.320;8.054;2023-04-25T16:49:15;5.78;;;1.50;;
35907;SDS011;22003;50.320;8.054;2023-04-25T16:51:40;7.10;;;2.00;;
35907;SDS011;22003;50.320;8.054;2023-04-25T16:54:06;4.40;;;1.38;;
35907;SDS011;22003;50.320;8.054;2023-04-25T16:56:31;3.15;;;1.33;;
35907;SDS011;22003;50.320;8.054;2023-04-25T16:58:56;2.25;;;1.05;;
35907;SDS011;22003;50.320;8.054;2023-04-25T17:01:21;3.33;;;1.52;;
35907;SDS011;22003;50.320;8.054;2023-04-25T17:03:47;2.25;;;1.23;;
35907;SDS011;22003;50.320;8.054;2023-04-25T17:06:12;3.33;;;1.50;;
35907;SDS011;22003;50.320;8.054;2023-04-25T17:08:39;3.17;;;1.17;;
35907;SDS011;22003;50.320;8.054;2023-04-25T17:11:05;2.92;;;1.23;;
35907;SDS011;22003;50.320;8.054;2023-04-25T17:13:32;3.00;;;1.20;;
35907;SDS011;22003;50.320;8.054;2023-04-25T17:15:58;3.22;;;1.15;;
35907;SDS011;22003;50.320;8.054;2023-04-25T17:18:23;3.60;;;1.35;;
35907;SDS011;22003;50.320;8.054;2023-04-25T17:20:49;1.40;;;1.00;;
35907;SDS011;22003;50.320;8.054;2023-04-25T17:23:15;4.72;;;1.60;;
35907;SDS011;22003;50.320;8.054;2023-04-25T17:25:40;3.20;;;1.60;;
35907;SDS011;22003;50.320;8.054;2023-04-25T17:28:05;2.72;;;1.20;;
35907;SDS011;22003;50.320;8.054;2023-04-25T17:30:31;4.82;;;1.75;;
35907;SDS011;22003;50.320;8.054;2023-04-25T17:32:57;2.53;;;1.42;;
35907;SDS011;22003;50.320;8.054;2023-04-25T17:35:23;4.40;;;1.70;;
35907;SDS011;22003;50.320;8.054;2023-04-25T17:37:48;4.75;;;1.38;;
35907;SDS011;22003;50.320;8.054;2023-04-25T17:40:15;3.70;;;1.37;;
35907;SDS011;22003;50.320;8.054;2023-04-25T17:42:40;4.75;;;1.42;;
35907;SDS011;22003;50.320;8.054;2023-04-25T17:45:06;6.90;;;1.77;;
35907;SDS011;22003;50.320;8.054;2023-04-25T17:47:32;5.65;;;1.95;;
35907;SDS011;22003;50.320;8.054;2023-04-25T17:49:58;6.35;;;1.80;;
35907;SDS011;22003;50.320;8.054;2023-04-25T17:52:23;5.95;;;1.55;;
35907;SDS011;22003;50.320;8.054;2023-04-25T17:54:48;5.32;;;1.95;;
35907;SDS011;22003;50.320;8.054;2023-04-25T17:57:14;3.28;;;1.67;;
35907;SDS011;22003;50.320;8.054;2023-04-25T17:59:40;6.15;;;2.00;;
35907;SDS011;22003;50.320;8.054;2023-04-25T18:02:05;7.20;;;1.80;;
35907;SDS011;22003;50.320;8.054;2023-04-25T18:04:31;2.75;;;1.52;;
35907;SDS011;22003;50.320;8.054;2023-04-25T18:06:57;6.63;;;1.88;;
35907;SDS011;22003;50.320;8.054;2023-04-25T18:09:22;3.45;;;1.90;;
35907;SDS011;22003;50.320;8.054;2023-04-25T18:11:50;2.70;;;1.48;;
35907;SDS011;22003;50.320;8.054;2023-04-25T18:14:16;4.60;;;1.55;;
35907;SDS011;22003;50.320;8.054;2023-04-25T18:16:44;5.47;;;1.65;;
35907;SDS011;22003;50.320;8.054;2023-04-25T18:19:11;5.72;;;1.83;;
35907;SDS011;22003;50.320;8.054;2023-04-25T18:21:42;3.67;;;2.13;;
35907;SDS011;22003;50.320;8.054;2023-04-25T18:24:09;5.35;;;2.15;;
35907;SDS011;22003;50.320;8.054;2023-04-25T18:26:45;2.80;;;1.67;;
35907;SDS011;22003;50.320;8.054;2023-04-25T18:29:14;8.75;;;3.55;;
35907;SDS011;22003;50.320;8.054;2023-04-25T18:31:41;5.65;;;2.15;;
35907;SDS011;22003;50.320;8.054;2023-04-25T18:34:07;5.03;;;1.90;;
35907;SDS011;22003;50.320;8.054;2023-04-25T18:36:33;3.22;;;1.98;;
35907;SDS011;22003;50.320;8.054;2023-04-25T18:38:58;4.03;;;2.00;;
35907;SDS011;22003;50.320;8.054;2023-04-25T18:41:26;6.45;;;2.33;;
35907;SDS011;22003;50.320;8.054;2023-04-25T18:43:52;9.57;;;2.22;;
35907;SDS011;22003;50.320;8.054;2023-04-25T18:46:19;3.83;;;1.80;;
35907;SDS011;22003;50.320;8.054;2023-04-25T18:48:48;6.03;;;2.10;;
35907;SDS011;22003;50.320;8.054;2023-04-25T18:51:15;4.20;;;1.83;;
35907;SDS011;22003;50.320;8.054;2023-04-25T18:53:40;3.67;;;2.30;;
35907;SDS011;22003;50.320;8.054;2023-04-25T18:56:06;7.53;;;2.30;;
35907;SDS011;22003;50.320;8.054;2023-04-25T18:58:31;2.10;;;1.60;;
35907;SDS011;22003;50.320;8.054;2023-04-25T19:00:57;4.75;;;2.20;;
35907;SDS011;22003;50.320;8.054;2023-04-25T19:03:23;5.97;;;2.10;;
35907;SDS011;22003;50.320;8.054;2023-04-25T19:05:48;11.73;;;4.03;;
35907;SDS011;22003;50.320;8.054;2023-04-25T19:08:13;5.15;;;3.22;;
35907;SDS011;22003;50.320;8.054;2023-04-25T19:10:39;7.18;;;3.70;;
35907;SDS011;22003;50.320;8.054;2023-04-25T19:13:05;7.65;;;3.53;;